createdAt,value
2018-12-26T00:00:07.600Z,18.60
2018-12-26T00:02:34.233Z,21.50
2018-12-26T00:05:00.707Z,19.50
2018-12-26T00:07:27.089Z,24.23
2018-12-26T00:09:53.579Z,21.23
2018-12-26T00:12:19.930Z,17.37
2018-12-26T00:14:46.396Z,22.43
2018-12-26T00:17:14.656Z,20.37
2018-12-26T00:19:41.189Z,20.87
2018-12-26T00:22:07.901Z,24.10
2018-12-26T00:24:34.375Z,20.80
2018-12-26T00:27:00.933Z,18.77
2018-12-26T00:29:27.447Z,21.50
2018-12-26T00:31:53.804Z,19.23
2018-12-26T00:34:20.365Z,17.77
2018-12-26T00:36:46.935Z,20.47
2018-12-26T00:39:13.484Z,17.80
2018-12-26T00:41:39.960Z,23.27
2018-12-26T00:44:06.520Z,17.97
2018-12-26T00:46:32.992Z,18.30
2018-12-26T00:48:59.541Z,21.43
2018-12-26T00:51:26.012Z,20.80
2018-12-26T00:53:52.563Z,23.10
2018-12-26T00:56:19.043Z,20.40
2018-12-26T00:58:45.643Z,19.83
2018-12-26T01:01:12.036Z,21.53
2018-12-26T01:03:38.604Z,22.00
2018-12-26T01:06:05.188Z,19.43
2018-12-26T01:08:31.796Z,22.57
2018-12-26T01:10:58.194Z,21.67
2018-12-26T01:13:24.575Z,18.87
2018-12-26T01:15:51.165Z,19.97
2018-12-26T01:18:17.620Z,20.17
2018-12-26T01:20:44.171Z,20.23
2018-12-26T01:23:10.653Z,19.97
2018-12-26T01:25:37.037Z,21.47
2018-12-26T01:28:03.520Z,17.90
2018-12-26T01:30:29.976Z,19.33
2018-12-26T01:32:56.455Z,18.80
2018-12-26T01:35:24.454Z,19.73
2018-12-26T01:37:50.920Z,21.10
2018-12-26T01:40:17.476Z,21.90
2018-12-26T01:42:43.857Z,23.57
2018-12-26T01:45:10.324Z,20.33
2018-12-26T01:47:36.796Z,19.83
2018-12-26T01:50:04.252Z,22.30
2018-12-26T01:52:30.736Z,21.63
2018-12-26T01:54:57.387Z,23.07
2018-12-26T01:57:23.745Z,18.73
2018-12-26T01:59:50.268Z,23.83
2018-12-26T02:02:16.724Z,19.50
2018-12-26T02:04:43.099Z,22.20
2018-12-26T02:07:09.548Z,20.83
2018-12-26T02:09:36.020Z,16.87
2018-12-26T02:12:02.571Z,25.80
2018-12-26T02:14:28.956Z,19.40
2018-12-26T02:16:55.307Z,18.50
2018-12-26T02:19:21.779Z,19.23
2018-12-26T02:21:48.328Z,18.27
2018-12-26T02:24:14.804Z,19.47
2018-12-26T02:26:41.260Z,20.20
2018-12-26T02:29:07.841Z,20.00
2018-12-26T02:31:34.295Z,20.23
2018-12-26T02:34:00.773Z,21.40
2018-12-26T02:36:27.229Z,21.27
2018-12-26T02:38:53.712Z,20.23
2018-12-26T02:41:20.173Z,22.17
2018-12-26T02:43:46.547Z,22.00
2018-12-26T02:46:12.932Z,23.90
2018-12-26T02:48:39.386Z,21.87
2018-12-26T02:51:05.971Z,23.70
2018-12-26T02:53:32.417Z,21.90
2018-12-26T02:55:58.801Z,25.23
2018-12-26T02:58:25.264Z,22.77
2018-12-26T03:00:51.843Z,24.70
2018-12-26T03:03:18.289Z,23.13
2018-12-26T03:05:44.660Z,22.43
2018-12-26T03:08:11.241Z,25.70
2018-12-26T03:10:38.079Z,24.30
2018-12-26T03:13:04.536Z,25.33
2018-12-26T03:15:30.993Z,23.87
2018-12-26T03:17:57.559Z,24.37
2018-12-26T03:20:24.016Z,17.63
2018-12-26T03:22:50.592Z,24.80
2018-12-26T03:25:17.044Z,20.17
2018-12-26T03:27:43.617Z,25.23
2018-12-26T03:30:10.084Z,21.40
2018-12-26T03:32:36.440Z,20.77
2018-12-26T03:35:03.595Z,20.57
2018-12-26T03:37:30.068Z,20.97
2018-12-26T03:39:56.629Z,20.23
2018-12-26T03:42:23.130Z,21.87
2018-12-26T03:44:49.985Z,22.70
2018-12-26T03:47:16.912Z,20.30
2018-12-26T03:49:43.339Z,20.27
2018-12-26T03:52:09.788Z,19.97
2018-12-26T03:54:36.261Z,22.17
2018-12-26T03:57:06.317Z,20.63
2018-12-26T03:59:31.289Z,25.43
2018-12-26T04:01:57.743Z,20.63
2018-12-26T04:04:24.208Z,24.57
2018-12-26T04:06:50.661Z,23.13
2018-12-26T04:09:17.236Z,21.57
2018-12-26T04:11:43.695Z,21.23
2018-12-26T04:14:10.284Z,25.83
2018-12-26T04:16:36.738Z,22.40
2018-12-26T04:19:03.238Z,25.33
2018-12-26T04:21:29.688Z,27.93
2018-12-26T04:23:56.159Z,26.37
2018-12-26T04:26:22.719Z,29.73
2018-12-26T04:28:49.283Z,26.17
2018-12-26T04:31:15.664Z,28.97
2018-12-26T04:33:42.323Z,27.23
2018-12-26T04:36:08.772Z,24.63
2018-12-26T04:38:35.134Z,25.93
2018-12-26T04:41:01.510Z,25.87
2018-12-26T04:43:27.913Z,27.77
2018-12-26T04:45:56.720Z,27.30
2018-12-26T04:48:23.344Z,28.37
2018-12-26T04:50:49.856Z,28.93
2018-12-26T04:53:16.309Z,28.17
2018-12-26T04:55:42.692Z,24.17
2018-12-26T04:58:09.284Z,28.37
2018-12-26T05:00:35.667Z,30.90
2018-12-26T05:03:02.223Z,29.93
2018-12-26T05:05:28.696Z,29.93
2018-12-26T05:07:55.149Z,29.37
2018-12-26T05:10:21.740Z,26.97
2018-12-26T05:12:48.304Z,25.50
2018-12-26T05:15:14.886Z,26.67
2018-12-26T05:17:41.336Z,32.20
2018-12-26T05:20:07.832Z,27.53
2018-12-26T05:22:34.221Z,26.57
2018-12-26T05:25:00.673Z,30.30
2018-12-26T05:27:34.141Z,28.03
2018-12-26T05:29:55.535Z,26.60
2018-12-26T05:32:22.108Z,24.00
2018-12-26T05:34:48.558Z,26.73
2018-12-26T05:37:15.137Z,28.20
2018-12-26T05:39:41.592Z,29.53
2018-12-26T05:42:08.076Z,31.17
2018-12-26T05:44:34.542Z,29.63
2018-12-26T05:47:00.927Z,28.47
2018-12-26T05:49:27.372Z,28.50
2018-12-26T05:51:53.750Z,32.07
2018-12-26T05:54:20.221Z,32.57
2018-12-26T05:56:46.704Z,29.37
2018-12-26T05:59:13.188Z,31.53
2018-12-26T06:01:39.668Z,43.60
2018-12-26T06:04:06.134Z,47.70
2018-12-26T06:06:32.623Z,68.83
2018-12-26T06:08:59.079Z,63.77
2018-12-26T06:11:25.463Z,51.67
2018-12-26T06:13:51.936Z,43.47
2018-12-26T06:16:18.297Z,39.47
2018-12-26T06:18:44.774Z,35.77
2018-12-26T06:21:11.223Z,33.47
2018-12-26T06:23:37.711Z,37.87
2018-12-26T06:26:04.262Z,36.57
2018-12-26T06:28:30.743Z,38.57
2018-12-26T06:30:57.188Z,33.63
2018-12-26T06:33:23.755Z,34.30
2018-12-26T06:35:50.308Z,32.87
2018-12-26T06:38:16.891Z,32.37
2018-12-26T06:40:43.255Z,32.33
2018-12-26T06:43:09.703Z,34.17
2018-12-26T06:45:36.272Z,34.80
2018-12-26T06:48:02.727Z,31.50
2018-12-26T06:50:29.196Z,34.90
2018-12-26T06:52:55.897Z,34.80
2018-12-26T06:55:22.464Z,34.83
2018-12-26T06:57:48.855Z,36.10
2018-12-26T07:00:15.328Z,36.60
2018-12-26T07:02:41.707Z,36.33
2018-12-26T07:05:08.080Z,34.23
2018-12-26T07:07:34.536Z,34.00
2018-12-26T07:10:00.933Z,34.63
2018-12-26T07:12:27.392Z,28.80
2018-12-26T07:14:53.764Z,30.77
2018-12-26T07:17:20.211Z,33.67
2018-12-26T07:19:46.790Z,32.97
2018-12-26T07:22:13.163Z,29.43
2018-12-26T07:24:39.616Z,31.13
2018-12-26T07:27:05.984Z,28.23
2018-12-26T07:29:32.428Z,35.23
2018-12-26T07:31:58.905Z,31.70
2018-12-26T07:34:25.968Z,33.20
2018-12-26T07:36:52.431Z,30.83
2018-12-26T07:39:18.795Z,30.23
2018-12-26T07:41:45.290Z,29.33
2018-12-26T07:44:11.727Z,32.23
2018-12-26T07:46:38.200Z,31.83
2018-12-26T07:49:04.752Z,29.67
2018-12-26T07:51:31.462Z,31.30
2018-12-26T07:53:57.987Z,33.87
2018-12-26T07:56:24.437Z,33.23
2018-12-26T07:58:50.947Z,35.80
2018-12-26T08:01:17.401Z,31.30
2018-12-26T08:03:43.864Z,30.00
2018-12-26T08:06:10.433Z,28.60
2018-12-26T08:08:36.896Z,30.97
2018-12-26T08:11:03.365Z,28.27
2018-12-26T08:13:29.756Z,27.50
2018-12-26T08:15:56.101Z,28.07
2018-12-26T08:18:22.477Z,25.43
2018-12-26T08:20:48.820Z,27.67
2018-12-26T08:23:15.224Z,25.83
2018-12-26T08:25:41.667Z,28.40
2018-12-26T08:28:08.039Z,25.60
2018-12-26T08:30:34.426Z,28.90
2018-12-26T08:33:01.012Z,23.23
2018-12-26T08:35:27.570Z,24.67
2018-12-26T08:37:54.274Z,23.60
2018-12-26T08:40:20.704Z,26.07
2018-12-26T08:42:47.164Z,20.80
2018-12-26T08:45:13.631Z,22.40
2018-12-26T08:47:40.023Z,19.50
2018-12-26T08:50:08.562Z,23.07
2018-12-26T08:52:35.004Z,22.77
2018-12-26T08:55:01.496Z,21.40
2018-12-26T08:57:28.056Z,23.40
2018-12-26T08:59:55.233Z,21.90
2018-12-26T09:02:21.685Z,20.47
2018-12-26T09:04:48.047Z,19.60
2018-12-26T09:07:14.401Z,20.50
2018-12-26T09:09:40.794Z,19.27
2018-12-26T09:12:07.503Z,19.60
2018-12-26T09:14:33.868Z,18.43
2018-12-26T09:17:00.016Z,18.03
2018-12-26T09:19:26.493Z,17.83
2018-12-26T09:21:52.973Z,16.53
2018-12-26T09:24:19.797Z,16.03
2018-12-26T09:26:46.248Z,17.00
2018-12-26T09:29:12.704Z,17.63
2018-12-26T09:31:39.180Z,16.67
2018-12-26T09:34:05.640Z,18.37
2018-12-26T09:36:32.111Z,17.37
2018-12-26T09:38:58.491Z,19.83
2018-12-26T09:41:24.876Z,18.87
2018-12-26T09:43:51.329Z,23.20
2018-12-26T09:46:17.800Z,36.67
2018-12-26T09:48:44.274Z,26.70
2018-12-26T09:51:10.748Z,23.80
2018-12-26T09:53:37.197Z,18.90
2018-12-26T09:56:03.767Z,18.97
2018-12-26T09:58:30.172Z,19.13
2018-12-26T10:00:56.646Z,18.63
2018-12-26T10:03:23.100Z,16.93
2018-12-26T10:05:49.580Z,15.80
2018-12-26T10:08:16.140Z,21.23
2018-12-26T10:10:42.499Z,16.07
2018-12-26T10:13:08.979Z,17.50
2018-12-26T10:15:35.431Z,16.77
2018-12-26T10:18:01.912Z,17.17
2018-12-26T10:20:28.364Z,14.40
2018-12-26T10:22:54.903Z,16.43
2018-12-26T10:25:21.417Z,14.53
2018-12-26T10:27:47.887Z,15.60
2018-12-26T10:30:14.340Z,15.70
2018-12-26T10:32:40.817Z,13.37
2018-12-26T10:35:07.369Z,15.27
2018-12-26T10:37:33.748Z,14.57
2018-12-26T10:40:00.179Z,12.40
2018-12-26T10:42:26.667Z,11.73
2018-12-26T10:44:53.125Z,13.87
2018-12-26T10:47:19.671Z,11.67
2018-12-26T10:49:46.043Z,11.70
2018-12-26T10:52:12.496Z,12.57
2018-12-26T10:54:38.987Z,11.37
2018-12-26T10:57:05.446Z,12.17
2018-12-26T10:59:31.937Z,10.13
2018-12-26T11:01:58.488Z,9.27
2018-12-26T11:04:25.084Z,9.57
2018-12-26T11:06:51.540Z,9.23
2018-12-26T11:09:18.026Z,9.47
2018-12-26T11:11:44.492Z,10.17
2018-12-26T11:14:10.984Z,9.60
2018-12-26T11:16:37.453Z,8.83
2018-12-26T11:19:04.069Z,12.95
2018-12-26T11:21:30.620Z,9.10
2018-12-26T11:23:57.097Z,11.10
2018-12-26T11:26:23.781Z,9.73
2018-12-26T11:28:50.353Z,10.10
2018-12-26T11:31:16.912Z,9.48
2018-12-26T11:33:43.311Z,10.98
2018-12-26T11:36:09.668Z,9.78
2018-12-26T11:38:36.124Z,9.18
2018-12-26T11:41:02.604Z,8.58
2018-12-26T11:43:29.048Z,8.35
2018-12-26T11:45:55.403Z,8.80
2018-12-26T11:48:21.860Z,8.98
2018-12-26T11:50:48.240Z,9.28
2018-12-26T11:53:14.695Z,7.78
2018-12-26T11:55:41.274Z,8.85
2018-12-26T11:58:07.767Z,7.60
2018-12-26T12:00:34.256Z,9.25
2018-12-26T12:03:00.650Z,7.62
2018-12-26T12:05:27.227Z,8.30
2018-12-26T12:07:53.695Z,7.22
2018-12-26T12:10:20.248Z,7.65
2018-12-26T12:12:46.856Z,8.00
2018-12-26T12:15:13.312Z,8.43
2018-12-26T12:17:39.791Z,8.00
2018-12-26T12:20:07.287Z,7.33
2018-12-26T12:22:33.772Z,8.28
2018-12-26T12:25:00.178Z,10.43
2018-12-26T12:27:26.708Z,9.07
2018-12-26T12:29:53.208Z,8.30
2018-12-26T12:32:19.677Z,8.33
2018-12-26T12:34:46.436Z,8.00
2018-12-26T12:37:12.933Z,9.07
2018-12-26T12:39:39.380Z,9.43
2018-12-26T12:42:05.856Z,7.83
2018-12-26T12:44:32.310Z,6.60
2018-12-26T12:46:58.884Z,4.87
2018-12-26T12:49:25.452Z,7.00
2018-12-26T12:51:52.041Z,5.40
2018-12-26T12:54:18.504Z,5.20
2018-12-26T12:56:44.955Z,4.60
2018-12-26T12:59:11.473Z,5.22
2018-12-26T13:01:37.931Z,5.85
2018-12-26T13:04:04.400Z,4.10
2018-12-26T13:06:30.788Z,5.42
2018-12-26T13:08:57.160Z,4.40
2018-12-26T13:11:23.533Z,5.67
2018-12-26T13:13:50.137Z,5.30
2018-12-26T13:16:16.486Z,4.40
2018-12-26T13:18:42.960Z,4.60
2018-12-26T13:21:09.512Z,4.35
2018-12-26T13:23:35.951Z,4.42
2018-12-26T13:26:02.740Z,3.92
2018-12-26T13:28:29.303Z,3.52
2018-12-26T13:30:55.771Z,5.47
2018-12-26T13:33:24.123Z,6.05
2018-12-26T13:35:50.600Z,4.40
2018-12-26T13:38:17.052Z,4.35
2018-12-26T13:40:43.539Z,4.62
2018-12-26T13:43:10.000Z,5.83
2018-12-26T13:45:36.575Z,7.03
2018-12-26T13:48:03.027Z,6.77
2018-12-26T13:50:29.885Z,6.90
2018-12-26T13:52:56.270Z,8.17
2018-12-26T13:55:22.745Z,7.53
2018-12-26T13:57:49.348Z,8.27
2018-12-26T14:00:15.817Z,6.67
2018-12-26T14:02:42.374Z,6.00
2018-12-26T14:05:08.760Z,6.57
2018-12-26T14:07:35.216Z,7.10
2018-12-26T14:10:01.695Z,10.30
2018-12-26T14:12:28.184Z,7.53
2018-12-26T14:14:54.636Z,8.17
2018-12-26T14:17:21.147Z,9.80
2018-12-26T14:19:47.735Z,11.00
2018-12-26T14:22:14.208Z,9.53
2018-12-26T14:24:40.660Z,11.77
2018-12-26T14:27:07.057Z,6.90
2018-12-26T14:29:33.504Z,7.97
2018-12-26T14:31:59.990Z,7.90
2018-12-26T14:34:26.435Z,7.00
2018-12-26T14:36:52.919Z,6.27
2018-12-26T14:39:19.478Z,7.70
2018-12-26T14:41:45.960Z,8.67
2018-12-26T14:44:12.413Z,7.43
2018-12-26T14:46:38.905Z,6.83
2018-12-26T14:49:06.783Z,6.67
2018-12-26T14:51:33.391Z,6.57
2018-12-26T14:53:59.871Z,5.47
2018-12-26T14:56:26.332Z,5.00
2018-12-26T14:58:52.768Z,7.23
2018-12-26T15:01:19.229Z,6.17
2018-12-26T15:03:45.819Z,5.80
2018-12-26T15:06:12.373Z,10.83
2018-12-26T15:08:38.738Z,12.43
2018-12-26T15:11:05.195Z,15.33
2018-12-26T15:13:31.595Z,14.63
2018-12-26T15:15:58.035Z,16.10
2018-12-26T15:18:24.526Z,18.17
2018-12-26T15:20:51.221Z,15.97
2018-12-26T15:23:17.855Z,14.93
2018-12-26T15:25:44.212Z,16.23
2018-12-26T15:28:10.689Z,14.93
2018-12-26T15:30:37.134Z,14.40
2018-12-26T15:33:03.492Z,17.70
2018-12-26T15:35:29.964Z,15.13
2018-12-26T15:37:56.464Z,15.13
2018-12-26T15:40:23.228Z,15.77
2018-12-26T15:42:49.584Z,17.27
2018-12-26T15:45:16.057Z,16.43
2018-12-26T15:47:42.620Z,13.30
2018-12-26T15:50:09.089Z,18.43
2018-12-26T15:52:35.537Z,22.03
2018-12-26T15:55:01.940Z,17.40
2018-12-26T15:57:28.387Z,17.97
2018-12-26T15:59:55.008Z,15.93
2018-12-26T16:02:21.455Z,15.37
2018-12-26T16:04:47.971Z,17.67
2018-12-26T16:07:14.531Z,21.03
2018-12-26T16:09:40.984Z,17.90
2018-12-26T16:12:07.371Z,16.40
2018-12-26T16:14:33.833Z,16.57
2018-12-26T16:17:00.204Z,19.03
2018-12-26T16:19:26.560Z,16.10
2018-12-26T16:21:53.031Z,17.00
2018-12-26T16:24:19.594Z,16.27
2018-12-26T16:26:46.063Z,19.37
2018-12-26T16:29:12.572Z,18.17
2018-12-26T16:31:39.177Z,15.90
2018-12-26T16:34:05.624Z,18.17
2018-12-26T16:36:32.108Z,15.30
2018-12-26T16:38:58.561Z,15.70
2018-12-26T16:41:24.959Z,18.90
2018-12-26T16:43:51.421Z,14.47
2018-12-26T16:46:17.788Z,17.60
2018-12-26T16:48:44.345Z,16.47
2018-12-26T16:51:10.836Z,17.67
2018-12-26T16:53:37.398Z,18.50
2018-12-26T16:56:03.875Z,19.33
2018-12-26T16:58:30.371Z,16.80
2018-12-26T17:00:56.716Z,16.70
2018-12-26T17:03:23.200Z,18.03
2018-12-26T17:05:49.653Z,17.77
2018-12-26T17:08:16.128Z,17.43
2018-12-26T17:10:42.515Z,14.50
2018-12-26T17:13:08.890Z,17.77
2018-12-26T17:15:35.340Z,16.73
2018-12-26T17:18:01.812Z,17.50
2018-12-26T17:20:28.364Z,21.53
2018-12-26T17:22:54.839Z,18.37
2018-12-26T17:25:21.303Z,18.00
2018-12-26T17:27:47.774Z,22.50
2018-12-26T17:30:14.223Z,22.97
2018-12-26T17:32:40.699Z,21.53
2018-12-26T17:35:07.149Z,23.27
2018-12-26T17:37:33.605Z,24.63
2018-12-26T17:40:00.027Z,25.90
2018-12-26T17:42:26.582Z,23.80
2018-12-26T17:44:53.047Z,23.33
2018-12-26T17:47:19.499Z,28.13
2018-12-26T17:49:46.097Z,31.77
2018-12-26T17:52:12.473Z,30.27
2018-12-26T17:54:40.148Z,30.93
2018-12-26T17:57:06.524Z,33.53
2018-12-26T17:59:34.825Z,34.03
2018-12-26T18:02:03.170Z,30.90
2018-12-26T18:04:29.745Z,32.57
2018-12-26T18:06:56.218Z,29.27
2018-12-26T18:09:22.607Z,31.53
2018-12-26T18:11:51.424Z,30.83
2018-12-26T18:14:17.604Z,36.33
2018-12-26T18:16:43.967Z,33.90
2018-12-26T18:19:10.416Z,32.10
2018-12-26T18:21:36.803Z,30.80
2018-12-26T18:24:03.352Z,32.60
2018-12-26T18:26:29.829Z,32.00
2018-12-26T18:28:56.384Z,30.23
2018-12-26T18:31:23.009Z,34.93
2018-12-26T18:33:49.388Z,31.37
2018-12-26T18:36:15.860Z,32.00
2018-12-26T18:38:42.312Z,33.43
2018-12-26T18:41:08.791Z,32.27
2018-12-26T18:43:35.339Z,34.17
2018-12-26T18:46:01.821Z,28.83
2018-12-26T18:48:28.271Z,40.03
2018-12-26T18:50:54.663Z,31.70
2018-12-26T18:53:21.125Z,28.80
2018-12-26T18:55:47.696Z,34.27
2018-12-26T18:58:14.192Z,31.97
2018-12-26T19:00:40.736Z,30.93
2018-12-26T19:03:07.220Z,35.70
2018-12-26T19:05:33.664Z,32.03
2018-12-26T19:08:00.149Z,28.80
2018-12-26T19:10:27.601Z,34.50
2018-12-26T19:12:53.980Z,27.47
2018-12-26T19:15:20.562Z,31.07
2018-12-26T19:17:47.141Z,30.70
2018-12-26T19:20:13.696Z,30.77
2018-12-26T19:22:40.278Z,37.13
2018-12-26T19:25:06.723Z,28.97
2018-12-26T19:27:33.106Z,31.27
2018-12-26T19:29:59.746Z,31.40
2018-12-26T19:32:26.171Z,29.10
2018-12-26T19:34:52.625Z,30.47
2018-12-26T19:37:19.078Z,27.27
2018-12-26T19:39:45.552Z,27.83
2018-12-26T19:42:12.015Z,26.03
2018-12-26T19:44:38.481Z,29.20
2018-12-26T19:47:04.937Z,33.63
2018-12-26T19:49:31.304Z,31.07
2018-12-26T19:51:57.660Z,29.13
2018-12-26T19:54:24.129Z,27.70
2018-12-26T19:56:51.021Z,32.00
2018-12-26T19:59:17.408Z,27.27
2018-12-26T20:01:48.138Z,27.47
2018-12-26T20:04:12.224Z,28.47
2018-12-26T20:06:38.608Z,29.77
2018-12-26T20:09:05.092Z,27.60
2018-12-26T20:11:31.549Z,27.10
2018-12-26T20:13:57.948Z,25.27
2018-12-26T20:16:24.419Z,27.90
2018-12-26T20:18:50.913Z,26.83
2018-12-26T20:21:17.355Z,25.40
2018-12-26T20:23:43.703Z,23.37
2018-12-26T20:26:10.175Z,27.20
2018-12-26T20:28:36.624Z,25.23
2018-12-26T20:31:03.095Z,24.67
2018-12-26T20:33:29.547Z,23.57
2018-12-26T20:35:56.028Z,24.20
2018-12-26T20:38:22.576Z,25.40
2018-12-26T20:40:49.164Z,26.57
2018-12-26T20:43:15.618Z,26.87
2018-12-26T20:45:42.096Z,26.37
2018-12-26T20:48:08.460Z,24.13
2018-12-26T20:50:34.934Z,23.23
2018-12-26T20:53:01.379Z,20.73
2018-12-26T20:55:27.957Z,25.30
2018-12-26T20:57:54.443Z,26.07
2018-12-26T21:00:21.048Z,25.70
2018-12-26T21:02:47.503Z,25.43
2018-12-26T21:05:13.849Z,29.63
2018-12-26T21:07:40.315Z,24.80
2018-12-26T21:10:07.096Z,22.53
2018-12-26T21:12:33.564Z,22.20
2018-12-26T21:15:00.131Z,24.73
2018-12-26T21:17:26.745Z,27.07
2018-12-26T21:19:53.184Z,24.70
2018-12-26T21:22:19.665Z,24.43
2018-12-26T21:24:56.438Z,25.57
2018-12-26T21:27:23.069Z,24.90
2018-12-26T21:29:49.435Z,26.67
2018-12-26T21:32:15.908Z,24.60
2018-12-26T21:34:42.266Z,24.23
2018-12-26T21:37:08.746Z,24.17
2018-12-26T21:39:35.095Z,29.23
2018-12-26T21:42:01.579Z,27.47
2018-12-26T21:44:28.031Z,25.03
2018-12-26T21:46:54.404Z,24.27
2018-12-26T21:49:20.871Z,24.30
2018-12-26T21:51:47.324Z,26.73
2018-12-26T21:54:13.791Z,26.93
2018-12-26T21:56:40.142Z,25.47
2018-12-26T21:59:06.554Z,27.30
2018-12-26T22:01:32.935Z,22.83
2018-12-26T22:03:59.411Z,27.87
2018-12-26T22:06:25.874Z,24.10
2018-12-26T22:08:52.337Z,26.90
2018-12-26T22:11:18.796Z,26.20
2018-12-26T22:13:45.399Z,24.47
2018-12-26T22:16:11.967Z,24.27
2018-12-26T22:18:38.416Z,24.47
2018-12-26T22:21:04.987Z,22.87
2018-12-26T22:23:31.548Z,23.53
2018-12-26T22:25:58.026Z,21.77
2018-12-26T22:28:24.409Z,23.97
2018-12-26T22:30:50.877Z,25.27
2018-12-26T22:33:17.428Z,24.77
2018-12-26T22:35:43.906Z,22.30
2018-12-26T22:38:10.364Z,23.33
2018-12-26T22:40:36.844Z,25.73
2018-12-26T22:43:03.303Z,25.17
2018-12-26T22:45:30.032Z,24.40
2018-12-26T22:47:56.486Z,22.73
2018-12-26T22:50:22.956Z,22.87
2018-12-26T22:52:49.411Z,23.13
2018-12-26T22:55:15.880Z,24.13
2018-12-26T22:57:42.352Z,23.83
2018-12-26T23:00:09.064Z,22.77
2018-12-26T23:02:38.911Z,23.70
2018-12-26T23:05:03.964Z,24.17
2018-12-26T23:07:30.427Z,21.20
2018-12-26T23:09:56.995Z,24.27
2018-12-26T23:12:23.475Z,20.77
2018-12-26T23:14:49.851Z,22.33
2018-12-26T23:17:16.351Z,22.37
2018-12-26T23:19:42.815Z,23.50
2018-12-26T23:22:09.527Z,24.70
2018-12-26T23:24:35.972Z,24.93
2018-12-26T23:27:02.470Z,22.50
2018-12-26T23:29:28.928Z,22.40
2018-12-26T23:31:55.307Z,20.27
2018-12-26T23:34:21.763Z,19.77
2018-12-26T23:36:48.232Z,22.63
2018-12-26T23:39:14.687Z,21.57
2018-12-26T23:41:40.829Z,21.27
2018-12-26T23:44:07.382Z,20.63
2018-12-26T23:46:33.854Z,21.73
2018-12-26T23:49:00.315Z,20.83
2018-12-26T23:51:26.869Z,23.30
2018-12-26T23:53:53.348Z,21.50
2018-12-26T23:56:19.727Z,22.47
2018-12-26T23:58:46.236Z,21.57
